sensor_id;sensor_type;location;lat;lon;timestamp;temperature;humidity
33207;DHT22;19565;46.602;11.534;2024-02-26T00:00:42;6.70;99.90
33207;DHT22;19565;46.602;11.534;2024-02-26T00:03:15;6.70;99.90
33207;DHT22;19565;46.602;11.534;2024-02-26T00:05:44;6.60;99.90
33207;DHT22;19565;46.602;11.534;2024-02-26T00:08:12;6.60;99.90
33207;DHT22;19565;46.602;11.534;2024-02-26T00:10:40;6.50;99.90
33207;DHT22;19565;46.602;11.534;2024-02-26T00:13:09;6.50;99.90
33207;DHT22;19565;46.602;11.534;2024-02-26T00:15:39;6.50;99.90
33207;DHT22;19565;46.602;11.534;2024-02-26T00:18:07;6.50;99.90
33207;DHT22;19565;46.602;11.534;2024-02-26T00:20:36;6.50;99.90
33207;DHT22;19565;46.602;11.534;2024-02-26T00:23:04;6.50;99.90
33207;DHT22;19565;46.602;11.534;2024-02-26T00:25:32;6.40;99.90
33207;DHT22;19565;46.602;11.534;2024-02-26T00:28:00;6.40;99.90
33207;DHT22;19565;46.602;11.534;2024-02-26T00:30:28;6.50;99.90
33207;DHT22;19565;46.602;11.534;2024-02-26T00:32:58;6.50;99.90
33207;DHT22;19565;46.602;11.534;2024-02-26T00:35:26;6.40;99.90
33207;DHT22;19565;46.602;11.534;2024-02-26T00:37:54;6.40;99.90
33207;DHT22;19565;46.602;11.534;2024-02-26T00:40:23;6.40;99.90
33207;DHT22;19565;46.602;11.534;2024-02-26T00:42:51;6.40;99.90
33207;DHT22;19565;46.602;11.534;2024-02-26T00:45:19;6.40;99.90
33207;DHT22;19565;46.602;11.534;2024-02-26T00:47:48;6.40;99.90
33207;DHT22;19565;46.602;11.534;2024-02-26T00:50:18;6.40;99.90
33207;DHT22;19565;46.602;11.534;2024-02-26T00:52:46;6.40;99.90
33207;DHT22;19565;46.602;11.534;2024-02-26T00:55:14;6.40;99.90
33207;DHT22;19565;46.602;11.534;2024-02-26T00:57:43;6.40;99.90
33207;DHT22;19565;46.602;11.534;2024-02-26T01:00:12;6.40;99.90
33207;DHT22;19565;46.602;11.534;2024-02-26T01:03:18;6.40;99.90
33207;DHT22;19565;46.602;11.534;2024-02-26T01:05:48;6.40;99.90
33207;DHT22;19565;46.602;11.534;2024-02-26T01:08:19;6.40;99.90
33207;DHT22;19565;46.602;11.534;2024-02-26T01:10:47;6.40;99.90
33207;DHT22;19565;46.602;11.534;2024-02-26T01:13:15;6.40;99.90
33207;DHT22;19565;46.602;11.534;2024-02-26T01:15:43;6.40;99.90
33207;DHT22;19565;46.602;11.534;2024-02-26T01:18:12;6.40;99.90
33207;DHT22;19565;46.602;11.534;2024-02-26T01:20:40;6.40;99.90
33207;DHT22;19565;46.602;11.534;2024-02-26T01:23:10;6.30;99.90
33207;DHT22;19565;46.602;11.534;2024-02-26T01:25:38;6.30;99.90
33207;DHT22;19565;46.602;11.534;2024-02-26T01:28:06;6.40;99.90
33207;DHT22;19565;46.602;11.534;2024-02-26T01:30:35;6.40;99.90
33207;DHT22;19565;46.602;11.534;2024-02-26T01:33:05;6.40;99.90
33207;DHT22;19565;46.602;11.534;2024-02-26T01:35:34;6.40;99.90
33207;DHT22;19565;46.602;11.534;2024-02-26T01:38:03;6.40;99.90
33207;DHT22;19565;46.602;11.534;2024-02-26T01:40:33;6.40;99.90
33207;DHT22;19565;46.602;11.534;2024-02-26T01:43:02;6.40;99.90
33207;DHT22;19565;46.602;11.534;2024-02-26T01:45:30;6.40;99.90
33207;DHT22;19565;46.602;11.534;2024-02-26T01:47:58;6.40;99.90
33207;DHT22;19565;46.602;11.534;2024-02-26T01:50:27;6.40;99.90
33207;DHT22;19565;46.602;11.534;2024-02-26T01:52:57;6.40;99.90
33207;DHT22;19565;46.602;11.534;2024-02-26T01:55:26;6.40;99.90
33207;DHT22;19565;46.602;11.534;2024-02-26T01:57:56;6.40;99.90
33207;DHT22;19565;46.602;11.534;2024-02-26T02:00:24;6.40;99.90
33207;DHT22;19565;46.602;11.534;2024-02-26T02:02:53;6.40;99.90
33207;DHT22;19565;46.602;11.534;2024-02-26T02:05:22;6.40;99.90
33207;DHT22;19565;46.602;11.534;2024-02-26T02:07:51;6.40;99.90
33207;DHT22;19565;46.602;11.534;2024-02-26T02:10:20;6.40;99.90
33207;DHT22;19565;46.602;11.534;2024-02-26T02:12:52;6.40;99.90
33207;DHT22;19565;46.602;11.534;2024-02-26T02:15:22;6.40;99.90
33207;DHT22;19565;46.602;11.534;2024-02-26T02:17:50;6.40;99.90
33207;DHT22;19565;46.602;11.534;2024-02-26T02:20:19;6.50;99.90
33207;DHT22;19565;46.602;11.534;2024-02-26T02:22:49;6.50;99.90
33207;DHT22;19565;46.602;11.534;2024-02-26T02:25:17;6.50;99.90
33207;DHT22;19565;46.602;11.534;2024-02-26T02:27:45;6.50;99.90
33207;DHT22;19565;46.602;11.534;2024-02-26T02:30:13;6.50;99.90
33207;DHT22;19565;46.602;11.534;2024-02-26T02:32:42;6.50;99.90
33207;DHT22;19565;46.602;11.534;2024-02-26T02:35:11;6.60;99.90
33207;DHT22;19565;46.602;11.534;2024-02-26T02:37:39;6.60;99.90
33207;DHT22;19565;46.602;11.534;2024-02-26T02:40:09;6.60;99.90
33207;DHT22;19565;46.602;11.534;2024-02-26T02:42:38;6.50;99.90
33207;DHT22;19565;46.602;11.534;2024-02-26T02:45:07;6.40;99.90
33207;DHT22;19565;46.602;11.534;2024-02-26T02:47:36;6.40;99.90
33207;DHT22;19565;46.602;11.534;2024-02-26T02:50:05;6.30;99.90
33207;DHT22;19565;46.602;11.534;2024-02-26T02:52:34;6.20;99.90
33207;DHT22;19565;46.602;11.534;2024-02-26T02:55:02;6.20;99.90
33207;DHT22;19565;46.602;11.534;2024-02-26T02:57:32;6.30;99.90
33207;DHT22;19565;46.602;11.534;2024-02-26T03:00:01;6.30;99.90
33207;DHT22;19565;46.602;11.534;2024-02-26T03:02:31;6.30;99.90
33207;DHT22;19565;46.602;11.534;2024-02-26T03:04:59;6.20;99.90
33207;DHT22;19565;46.602;11.534;2024-02-26T03:07:27;6.10;99.90
33207;DHT22;19565;46.602;11.534;2024-02-26T03:09:56;5.80;99.90
33207;DHT22;19565;46.602;11.534;2024-02-26T03:12:24;5.80;99.90
33207;DHT22;19565;46.602;11.534;2024-02-26T03:14:57;5.70;99.90
33207;DHT22;19565;46.602;11.534;2024-02-26T03:17:27;5.70;99.90
33207;DHT22;19565;46.602;11.534;2024-02-26T03:19:55;5.70;99.90
33207;DHT22;19565;46.602;11.534;2024-02-26T03:22:23;5.60;99.90
33207;DHT22;19565;46.602;11.534;2024-02-26T03:24:52;5.70;99.90
33207;DHT22;19565;46.602;11.534;2024-02-26T03:27:20;5.70;99.90
33207;DHT22;19565;46.602;11.534;2024-02-26T03:29:48;5.80;99.90
33207;DHT22;19565;46.602;11.534;2024-02-26T03:32:18;5.80;99.90
33207;DHT22;19565;46.602;11.534;2024-02-26T03:34:49;5.80;99.90
33207;DHT22;19565;46.602;11.534;2024-02-26T03:37:21;5.90;99.90
33207;DHT22;19565;46.602;11.534;2024-02-26T03:39:49;5.90;99.90
33207;DHT22;19565;46.602;11.534;2024-02-26T03:42:17;6.00;99.90
33207;DHT22;19565;46.602;11.534;2024-02-26T03:44:46;6.10;99.90
33207;DHT22;19565;46.602;11.534;2024-02-26T03:47:14;6.10;99.90
33207;DHT22;19565;46.602;11.534;2024-02-26T03:49:44;6.00;99.90
33207;DHT22;19565;46.602;11.534;2024-02-26T03:52:12;6.00;99.90
33207;DHT22;19565;46.602;11.534;2024-02-26T03:54:41;5.80;99.90
33207;DHT22;19565;46.602;11.534;2024-02-26T03:57:10;5.80;99.90
33207;DHT22;19565;46.602;11.534;2024-02-26T03:59:38;5.70;99.90
33207;DHT22;19565;46.602;11.534;2024-02-26T04:02:07;5.70;99.90
33207;DHT22;19565;46.602;11.534;2024-02-26T04:04:37;5.70;99.90
33207;DHT22;19565;46.602;11.534;2024-02-26T04:07:06;5.60;99.90
33207;DHT22;19565;46.602;11.534;2024-02-26T04:09:35;5.60;99.90
33207;DHT22;19565;46.602;11.534;2024-02-26T04:12:04;5.60;99.90
33207;DHT22;19565;46.602;11.534;2024-02-26T04:14:32;5.70;99.90
33207;DHT22;19565;46.602;11.534;2024-02-26T04:17:00;5.80;99.90
33207;DHT22;19565;46.602;11.534;2024-02-26T04:19:28;5.90;99.90
33207;DHT22;19565;46.602;11.534;2024-02-26T04:21:57;6.00;99.90
33207;DHT22;19565;46.602;11.534;2024-02-26T04:24:26;6.00;99.90
33207;DHT22;19565;46.602;11.534;2024-02-26T04:26:55;5.90;99.90
33207;DHT22;19565;46.602;11.534;2024-02-26T04:29:23;5.90;99.90
33207;DHT22;19565;46.602;11.534;2024-02-26T04:31:51;6.00;99.90
33207;DHT22;19565;46.602;11.534;2024-02-26T04:34:19;5.90;99.90
33207;DHT22;19565;46.602;11.534;2024-02-26T04:36:47;5.90;99.90
33207;DHT22;19565;46.602;11.534;2024-02-26T04:39:16;5.90;99.90
33207;DHT22;19565;46.602;11.534;2024-02-26T04:41:46;6.00;99.90
33207;DHT22;19565;46.602;11.534;2024-02-26T04:44:14;6.00;99.90
33207;DHT22;19565;46.602;11.534;2024-02-26T04:46:42;6.00;99.90
33207;DHT22;19565;46.602;11.534;2024-02-26T04:49:13;6.00;99.90
33207;DHT22;19565;46.602;11.534;2024-02-26T04:51:41;6.10;99.90
33207;DHT22;19565;46.602;11.534;2024-02-26T04:54:08;6.20;99.90
33207;DHT22;19565;46.602;11.534;2024-02-26T04:56:36;6.30;99.90
33207;DHT22;19565;46.602;11.534;2024-02-26T04:59:07;6.40;99.90
33207;DHT22;19565;46.602;11.534;2024-02-26T05:01:35;6.40;99.90
33207;DHT22;19565;46.602;11.534;2024-02-26T05:04:04;6.40;99.90
33207;DHT22;19565;46.602;11.534;2024-02-26T05:06:33;6.40;99.90
33207;DHT22;19565;46.602;11.534;2024-02-26T05:09:01;6.50;99.90
33207;DHT22;19565;46.602;11.534;2024-02-26T05:11:30;6.50;99.90
33207;DHT22;19565;46.602;11.534;2024-02-26T05:13:59;6.40;99.90
33207;DHT22;19565;46.602;11.534;2024-02-26T05:16:29;6.30;99.90
33207;DHT22;19565;46.602;11.534;2024-02-26T05:18:58;6.20;99.90
33207;DHT22;19565;46.602;11.534;2024-02-26T05:21:26;6.20;99.90
33207;DHT22;19565;46.602;11.534;2024-02-26T05:23:54;6.20;99.90
33207;DHT22;19565;46.602;11.534;2024-02-26T05:26:23;6.20;99.90
33207;DHT22;19565;46.602;11.534;2024-02-26T05:28:51;6.30;99.90
33207;DHT22;19565;46.602;11.534;2024-02-26T05:31:19;6.30;99.90
33207;DHT22;19565;46.602;11.534;2024-02-26T05:33:52;6.40;99.90
33207;DHT22;19565;46.602;11.534;2024-02-26T05:36:21;6.40;99.90
33207;DHT22;19565;46.602;11.534;2024-02-26T05:38:50;6.50;99.90
33207;DHT22;19565;46.602;11.534;2024-02-26T05:41:18;6.50;99.90
33207;DHT22;19565;46.602;11.534;2024-02-26T05:43:50;6.50;99.90
33207;DHT22;19565;46.602;11.534;2024-02-26T05:46:19;6.40;99.90
33207;DHT22;19565;46.602;11.534;2024-02-26T05:48:48;6.30;99.90
33207;DHT22;19565;46.602;11.534;2024-02-26T05:51:19;6.20;99.90
33207;DHT22;19565;46.602;11.534;2024-02-26T05:53:48;6.20;99.90
33207;DHT22;19565;46.602;11.534;2024-02-26T05:56:24;6.20;99.90
33207;DHT22;19565;46.602;11.534;2024-02-26T05:58:52;6.20;99.90
33207;DHT22;19565;46.602;11.534;2024-02-26T06:01:21;6.30;99.90
33207;DHT22;19565;46.602;11.534;2024-02-26T06:03:50;6.40;99.90
33207;DHT22;19565;46.602;11.534;2024-02-26T06:06:19;6.40;99.90
33207;DHT22;19565;46.602;11.534;2024-02-26T06:08:50;6.40;99.90
33207;DHT22;19565;46.602;11.534;2024-02-26T06:11:18;6.40;99.90
33207;DHT22;19565;46.602;11.534;2024-02-26T06:13:47;6.40;99.90
33207;DHT22;19565;46.602;11.534;2024-02-26T06:16:15;6.40;99.90
33207;DHT22;19565;46.602;11.534;2024-02-26T06:18:43;6.40;99.90
33207;DHT22;19565;46.602;11.534;2024-02-26T06:21:12;6.40;99.90
33207;DHT22;19565;46.602;11.534;2024-02-26T06:23:41;6.50;99.90
33207;DHT22;19565;46.602;11.534;2024-02-26T06:26:10;6.50;99.90
33207;DHT22;19565;46.602;11.534;2024-02-26T06:28:38;6.60;99.90
33207;DHT22;19565;46.602;11.534;2024-02-26T06:31:08;6.60;99.90
33207;DHT22;19565;46.602;11.534;2024-02-26T06:33:36;6.60;99.90
33207;DHT22;19565;46.602;11.534;2024-02-26T06:36:05;6.50;99.90
33207;DHT22;19565;46.602;11.534;2024-02-26T06:38:34;6.50;99.90
33207;DHT22;19565;46.602;11.534;2024-02-26T06:41:04;6.60;99.90
33207;DHT22;19565;46.602;11.534;2024-02-26T06:43:32;6.50;99.90
33207;DHT22;19565;46.602;11.534;2024-02-26T06:46:00;6.30;99.90
33207;DHT22;19565;46.602;11.534;2024-02-26T06:48:29;6.20;99.90
33207;DHT22;19565;46.602;11.534;2024-02-26T06:50:57;6.20;99.90
33207;DHT22;19565;46.602;11.534;2024-02-26T06:53:25;6.20;99.90
33207;DHT22;19565;46.602;11.534;2024-02-26T06:55:54;6.20;99.90
33207;DHT22;19565;46.602;11.534;2024-02-26T06:58:24;6.20;99.90
33207;DHT22;19565;46.602;11.534;2024-02-26T07:00:52;6.30;99.90
33207;DHT22;19565;46.602;11.534;2024-02-26T07:03:20;6.40;99.90
33207;DHT22;19565;46.602;11.534;2024-02-26T07:05:50;6.50;99.90
33207;DHT22;19565;46.602;11.534;2024-02-26T07:08:18;6.50;99.90
33207;DHT22;19565;46.602;11.534;2024-02-26T07:10:47;6.60;99.90
33207;DHT22;19565;46.602;11.534;2024-02-26T07:13:15;6.60;99.90
33207;DHT22;19565;46.602;11.534;2024-02-26T07:15:45;6.50;99.90
33207;DHT22;19565;46.602;11.534;2024-02-26T07:18:13;6.50;99.90
33207;DHT22;19565;46.602;11.534;2024-02-26T07:20:41;6.40;99.90
33207;DHT22;19565;46.602;11.534;2024-02-26T07:23:10;6.40;99.90
33207;DHT22;19565;46.602;11.534;2024-02-26T07:25:38;6.30;99.90
33207;DHT22;19565;46.602;11.534;2024-02-26T07:28:06;6.40;99.90
33207;DHT22;19565;46.602;11.534;2024-02-26T07:30:34;6.50;99.90
33207;DHT22;19565;46.602;11.534;2024-02-26T07:33:04;6.50;99.90
33207;DHT22;19565;46.602;11.534;2024-02-26T07:35:33;6.60;99.90
33207;DHT22;19565;46.602;11.534;2024-02-26T07:38:03;6.50;99.90
33207;DHT22;19565;46.602;11.534;2024-02-26T07:40:31;6.50;99.90
33207;DHT22;19565;46.602;11.534;2024-02-26T07:43:00;6.50;99.90
33207;DHT22;19565;46.602;11.534;2024-02-26T07:45:28;6.60;99.90
33207;DHT22;19565;46.602;11.534;2024-02-26T07:47:56;6.60;99.90
33207;DHT22;19565;46.602;11.534;2024-02-26T07:50:26;6.60;99.90
33207;DHT22;19565;46.602;11.534;2024-02-26T07:52:54;6.60;99.90
33207;DHT22;19565;46.602;11.534;2024-02-26T07:55:23;6.70;99.90
33207;DHT22;19565;46.602;11.534;2024-02-26T07:57:51;6.70;99.90
33207;DHT22;19565;46.602;11.534;2024-02-26T08:00:20;6.70;99.90
33207;DHT22;19565;46.602;11.534;2024-02-26T08:02:52;6.60;99.90
33207;DHT22;19565;46.602;11.534;2024-02-26T08:05:20;6.60;99.90
33207;DHT22;19565;46.602;11.534;2024-02-26T08:07:50;6.60;99.90
33207;DHT22;19565;46.602;11.534;2024-02-26T08:10:18;6.70;99.90
33207;DHT22;19565;46.602;11.534;2024-02-26T08:12:49;6.70;99.90
33207;DHT22;19565;46.602;11.534;2024-02-26T08:15:17;6.60;99.90
33207;DHT22;19565;46.602;11.534;2024-02-26T08:17:45;6.60;99.90
33207;DHT22;19565;46.602;11.534;2024-02-26T08:20:15;6.70;99.90
33207;DHT22;19565;46.602;11.534;2024-02-26T08:22:43;6.70;99.90
33207;DHT22;19565;46.602;11.534;2024-02-26T08:25:13;6.70;99.90
33207;DHT22;19565;46.602;11.534;2024-02-26T08:27:42;6.70;99.90
33207;DHT22;19565;46.602;11.534;2024-02-26T08:30:12;6.80;99.90
33207;DHT22;19565;46.602;11.534;2024-02-26T08:32:43;6.80;99.90
33207;DHT22;19565;46.602;11.534;2024-02-26T08:35:14;6.80;99.90
33207;DHT22;19565;46.602;11.534;2024-02-26T08:37:44;6.90;99.90
33207;DHT22;19565;46.602;11.534;2024-02-26T08:40:14;6.90;99.90
33207;DHT22;19565;46.602;11.534;2024-02-26T08:42:43;6.80;99.90
33207;DHT22;19565;46.602;11.534;2024-02-26T08:45:11;6.70;99.90
33207;DHT22;19565;46.602;11.534;2024-02-26T08:47:39;6.70;99.90
33207;DHT22;19565;46.602;11.534;2024-02-26T08:50:08;6.60;99.90
33207;DHT22;19565;46.602;11.534;2024-02-26T08:52:38;6.50;99.90
33207;DHT22;19565;46.602;11.534;2024-02-26T08:55:07;6.50;99.90
33207;DHT22;19565;46.602;11.534;2024-02-26T08:57:38;6.40;99.90
33207;DHT22;19565;46.602;11.534;2024-02-26T09:00:07;6.40;99.90
33207;DHT22;19565;46.602;11.534;2024-02-26T09:02:35;6.50;99.90
33207;DHT22;19565;46.602;11.534;2024-02-26T09:05:06;6.50;99.90
33207;DHT22;19565;46.602;11.534;2024-02-26T09:07:34;6.40;99.90
33207;DHT22;19565;46.602;11.534;2024-02-26T09:10:03;6.40;99.90
33207;DHT22;19565;46.602;11.534;2024-02-26T09:12:32;6.50;99.90
33207;DHT22;19565;46.602;11.534;2024-02-26T09:15:08;6.50;99.90
33207;DHT22;19565;46.602;11.534;2024-02-26T09:17:39;6.50;99.90
33207;DHT22;19565;46.602;11.534;2024-02-26T09:20:08;6.60;99.90
33207;DHT22;19565;46.602;11.534;2024-02-26T09:22:37;6.70;99.90
33207;DHT22;19565;46.602;11.534;2024-02-26T09:25:06;6.70;99.90
33207;DHT22;19565;46.602;11.534;2024-02-26T09:27:34;6.80;99.90
33207;DHT22;19565;46.602;11.534;2024-02-26T09:30:10;6.80;99.90
33207;DHT22;19565;46.602;11.534;2024-02-26T09:32:39;6.90;99.90
33207;DHT22;19565;46.602;11.534;2024-02-26T09:35:08;6.90;99.90
33207;DHT22;19565;46.602;11.534;2024-02-26T09:37:36;7.00;99.90
33207;DHT22;19565;46.602;11.534;2024-02-26T09:40:05;7.10;99.90
33207;DHT22;19565;46.602;11.534;2024-02-26T09:42:34;7.10;99.90
33207;DHT22;19565;46.602;11.534;2024-02-26T09:45:06;7.20;99.90
33207;DHT22;19565;46.602;11.534;2024-02-26T09:47:40;7.20;99.90
33207;DHT22;19565;46.602;11.534;2024-02-26T09:50:09;7.20;99.90
33207;DHT22;19565;46.602;11.534;2024-02-26T09:52:39;7.20;99.90
33207;DHT22;19565;46.602;11.534;2024-02-26T09:55:09;7.30;99.90
33207;DHT22;19565;46.602;11.534;2024-02-26T09:57:41;7.30;99.90
33207;DHT22;19565;46.602;11.534;2024-02-26T10:00:15;7.30;99.90
33207;DHT22;19565;46.602;11.534;2024-02-26T10:02:47;7.30;99.90
33207;DHT22;19565;46.602;11.534;2024-02-26T10:05:17;7.40;99.90
33207;DHT22;19565;46.602;11.534;2024-02-26T10:07:46;7.40;99.90
33207;DHT22;19565;46.602;11.534;2024-02-26T10:10:15;7.50;99.90
33207;DHT22;19565;46.602;11.534;2024-02-26T10:12:44;7.60;99.90
33207;DHT22;19565;46.602;11.534;2024-02-26T10:15:12;7.60;99.90
33207;DHT22;19565;46.602;11.534;2024-02-26T10:17:41;7.70;99.90
33207;DHT22;19565;46.602;11.534;2024-02-26T10:20:18;7.70;99.90
33207;DHT22;19565;46.602;11.534;2024-02-26T10:22:49;7.70;99.90
33207;DHT22;19565;46.602;11.534;2024-02-26T10:25:19;7.70;99.90
33207;DHT22;19565;46.602;11.534;2024-02-26T10:27:47;7.80;99.90
33207;DHT22;19565;46.602;11.534;2024-02-26T10:30:17;7.70;99.90
33207;DHT22;19565;46.602;11.534;2024-02-26T10:32:47;7.80;99.90
33207;DHT22;19565;46.602;11.534;2024-02-26T10:35:18;7.90;99.90
33207;DHT22;19565;46.602;11.534;2024-02-26T10:37:48;8.00;99.90
33207;DHT22;19565;46.602;11.534;2024-02-26T10:40:17;8.10;99.90
33207;DHT22;19565;46.602;11.534;2024-02-26T10:42:45;8.00;99.90
33207;DHT22;19565;46.602;11.534;2024-02-26T10:45:16;7.90;99.90
33207;DHT22;19565;46.602;11.534;2024-02-26T10:47:46;7.90;99.90
33207;DHT22;19565;46.602;11.534;2024-02-26T10:50:15;7.90;99.90
33207;DHT22;19565;46.602;11.534;2024-02-26T10:52:45;7.90;99.90
33207;DHT22;19565;46.602;11.534;2024-02-26T10:55:15;7.90;99.90
33207;DHT22;19565;46.602;11.534;2024-02-26T10:57:46;7.90;99.90
33207;DHT22;19565;46.602;11.534;2024-02-26T11:00:16;7.90;99.90
33207;DHT22;19565;46.602;11.534;2024-02-26T11:02:51;7.90;99.90
33207;DHT22;19565;46.602;11.534;2024-02-26T11:05:20;8.00;99.90
33207;DHT22;19565;46.602;11.534;2024-02-26T11:07:50;7.90;99.90
33207;DHT22;19565;46.602;11.534;2024-02-26T11:10:20;8.00;99.90
33207;DHT22;19565;46.602;11.534;2024-02-26T11:12:49;8.00;99.90
33207;DHT22;19565;46.602;11.534;2024-02-26T11:15:19;8.10;99.90
33207;DHT22;19565;46.602;11.534;2024-02-26T11:17:48;8.10;99.90
33207;DHT22;19565;46.602;11.534;2024-02-26T11:20:17;8.20;99.90
33207;DHT22;19565;46.602;11.534;2024-02-26T11:22:47;8.30;99.90
33207;DHT22;19565;46.602;11.534;2024-02-26T11:25:17;8.20;99.90
33207;DHT22;19565;46.602;11.534;2024-02-26T11:27:50;8.20;99.90
33207;DHT22;19565;46.602;11.534;2024-02-26T11:30:19;8.40;99.90
33207;DHT22;19565;46.602;11.534;2024-02-26T11:32:48;8.40;99.90
33207;DHT22;19565;46.602;11.534;2024-02-26T11:35:18;8.40;99.90
33207;DHT22;19565;46.602;11.534;2024-02-26T11:37:56;8.50;99.90
33207;DHT22;19565;46.602;11.534;2024-02-26T11:40:27;8.50;99.90
33207;DHT22;19565;46.602;11.534;2024-02-26T11:42:55;8.70;99.90
33207;DHT22;19565;46.602;11.534;2024-02-26T11:45:48;8.70;99.90
33207;DHT22;19565;46.602;11.534;2024-02-26T11:48:23;8.70;99.90
33207;DHT22;19565;46.602;11.534;2024-02-26T11:50:53;8.80;99.90
33207;DHT22;19565;46.602;11.534;2024-02-26T11:53:26;8.80;99.90
33207;DHT22;19565;46.602;11.534;2024-02-26T11:56:22;8.80;99.90
33207;DHT22;19565;46.602;11.534;2024-02-26T11:58:59;8.80;99.90
33207;DHT22;19565;46.602;11.534;2024-02-26T12:01:51;8.70;99.90
33207;DHT22;19565;46.602;11.534;2024-02-26T12:04:22;8.70;99.90
33207;DHT22;19565;46.602;11.534;2024-02-26T12:06:55;8.70;99.90
33207;DHT22;19565;46.602;11.534;2024-02-26T12:09:31;8.70;99.90
33207;DHT22;19565;46.602;11.534;2024-02-26T12:12:03;8.80;99.90
33207;DHT22;19565;46.602;11.534;2024-02-26T12:14:37;8.80;99.90
33207;DHT22;19565;46.602;11.534;2024-02-26T12:17:19;8.90;99.90
33207;DHT22;19565;46.602;11.534;2024-02-26T12:19:47;8.90;99.90
33207;DHT22;19565;46.602;11.534;2024-02-26T12:22:16;8.90;99.90
33207;DHT22;19565;46.602;11.534;2024-02-26T12:24:45;9.00;99.90
33207;DHT22;19565;46.602;11.534;2024-02-26T12:27:14;9.10;99.90
33207;DHT22;19565;46.602;11.534;2024-02-26T12:29:43;9.00;99.90
33207;DHT22;19565;46.602;11.534;2024-02-26T12:32:12;9.10;99.90
33207;DHT22;19565;46.602;11.534;2024-02-26T12:34:40;9.10;99.90
33207;DHT22;19565;46.602;11.534;2024-02-26T12:37:09;9.10;99.90
33207;DHT22;19565;46.602;11.534;2024-02-26T12:39:38;9.10;99.90
33207;DHT22;19565;46.602;11.534;2024-02-26T12:42:07;9.20;99.90
33207;DHT22;19565;46.602;11.534;2024-02-26T12:44:37;9.20;99.90
33207;DHT22;19565;46.602;11.534;2024-02-26T12:47:06;9.20;99.90
33207;DHT22;19565;46.602;11.534;2024-02-26T12:49:34;9.20;99.90
33207;DHT22;19565;46.602;11.534;2024-02-26T12:52:02;9.20;99.90
33207;DHT22;19565;46.602;11.534;2024-02-26T12:54:31;9.20;99.90
33207;DHT22;19565;46.602;11.534;2024-02-26T12:57:02;9.20;99.90
33207;DHT22;19565;46.602;11.534;2024-02-26T12:59:32;9.20;99.90
33207;DHT22;19565;46.602;11.534;2024-02-26T13:02:02;9.20;99.90
33207;DHT22;19565;46.602;11.534;2024-02-26T13:04:34;9.20;99.90
33207;DHT22;19565;46.602;11.534;2024-02-26T13:07:03;9.30;99.90
33207;DHT22;19565;46.602;11.534;2024-02-26T13:09:33;9.30;99.90
33207;DHT22;19565;46.602;11.534;2024-02-26T13:12:04;9.20;99.90
33207;DHT22;19565;46.602;11.534;2024-02-26T13:14:33;9.20;99.90
33207;DHT22;19565;46.602;11.534;2024-02-26T13:17:03;9.20;99.90
33207;DHT22;19565;46.602;11.534;2024-02-26T13:19:32;9.20;99.90
33207;DHT22;19565;46.602;11.534;2024-02-26T13:22:04;9.20;99.90
33207;DHT22;19565;46.602;11.534;2024-02-26T13:24:34;9.20;99.90
33207;DHT22;19565;46.602;11.534;2024-02-26T13:27:03;9.20;99.90
33207;DHT22;19565;46.602;11.534;2024-02-26T13:29:33;9.20;99.90
33207;DHT22;19565;46.602;11.534;2024-02-26T13:32:03;9.10;99.90
33207;DHT22;19565;46.602;11.534;2024-02-26T13:34:33;9.10;99.90
33207;DHT22;19565;46.602;11.534;2024-02-26T13:37:02;9.00;99.90
33207;DHT22;19565;46.602;11.534;2024-02-26T13:39:32;9.00;99.90
33207;DHT22;19565;46.602;11.534;2024-02-26T13:42:05;9.00;99.90
33207;DHT22;19565;46.602;11.534;2024-02-26T13:44:33;9.00;99.90
33207;DHT22;19565;46.602;11.534;2024-02-26T13:47:07;8.90;99.90
33207;DHT22;19565;46.602;11.534;2024-02-26T13:49:36;8.90;99.90
33207;DHT22;19565;46.602;11.534;2024-02-26T13:52:04;8.90;99.90
33207;DHT22;19565;46.602;11.534;2024-02-26T13:54:32;9.00;99.90
33207;DHT22;19565;46.602;11.534;2024-02-26T13:57:02;9.00;99.90
33207;DHT22;19565;46.602;11.534;2024-02-26T13:59:31;9.00;99.90
33207;DHT22;19565;46.602;11.534;2024-02-26T14:02:01;9.00;99.90
33207;DHT22;19565;46.602;11.534;2024-02-26T14:04:31;9.00;99.90
33207;DHT22;19565;46.602;11.534;2024-02-26T14:06:59;9.00;99.90
33207;DHT22;19565;46.602;11.534;2024-02-26T14:09:28;9.10;99.90
33207;DHT22;19565;46.602;11.534;2024-02-26T14:12:11;9.10;99.90
33207;DHT22;19565;46.602;11.534;2024-02-26T14:14:40;9.10;99.90
33207;DHT22;19565;46.602;11.534;2024-02-26T14:17:09;9.10;99.90
33207;DHT22;19565;46.602;11.534;2024-02-26T14:19:39;9.10;99.90
33207;DHT22;19565;46.602;11.534;2024-02-26T14:22:11;9.10;99.90
33207;DHT22;19565;46.602;11.534;2024-02-26T14:24:39;9.10;99.90
33207;DHT22;19565;46.602;11.534;2024-02-26T14:27:09;9.10;99.90
33207;DHT22;19565;46.602;11.534;2024-02-26T14:29:38;9.10;99.90
33207;DHT22;19565;46.602;11.534;2024-02-26T14:32:09;9.10;99.90
33207;DHT22;19565;46.602;11.534;2024-02-26T14:34:38;9.10;99.90
33207;DHT22;19565;46.602;11.534;2024-02-26T14:37:07;9.10;99.90
33207;DHT22;19565;46.602;11.534;2024-02-26T14:39:36;9.10;99.90
33207;DHT22;19565;46.602;11.534;2024-02-26T14:42:05;9.10;99.90
33207;DHT22;19565;46.602;11.534;2024-02-26T14:44:34;9.10;99.90
33207;DHT22;19565;46.602;11.534;2024-02-26T14:47:02;9.10;99.90
33207;DHT22;19565;46.602;11.534;2024-02-26T14:49:31;9.10;99.90
33207;DHT22;19565;46.602;11.534;2024-02-26T14:52:00;9.10;99.90
33207;DHT22;19565;46.602;11.534;2024-02-26T14:54:30;9.10;99.90
33207;DHT22;19565;46.602;11.534;2024-02-26T14:57:00;9.10;99.90
33207;DHT22;19565;46.602;11.534;2024-02-26T14:59:29;9.10;99.90
33207;DHT22;19565;46.602;11.534;2024-02-26T15:01:56;9.10;99.90
33207;DHT22;19565;46.602;11.534;2024-02-26T15:04:24;9.10;99.90
33207;DHT22;19565;46.602;11.534;2024-02-26T15:06:53;9.10;99.90
33207;DHT22;19565;46.602;11.534;2024-02-26T15:09:22;9.10;99.90
33207;DHT22;19565;46.602;11.534;2024-02-26T15:11:51;9.10;99.90
33207;DHT22;19565;46.602;11.534;2024-02-26T15:14:19;9.10;99.90
33207;DHT22;19565;46.602;11.534;2024-02-26T15:16:47;9.10;99.90
33207;DHT22;19565;46.602;11.534;2024-02-26T15:19:15;9.10;99.90
33207;DHT22;19565;46.602;11.534;2024-02-26T15:21:45;9.10;99.90
33207;DHT22;19565;46.602;11.534;2024-02-26T15:24:13;9.10;99.90
33207;DHT22;19565;46.602;11.534;2024-02-26T15:26:45;9.10;99.90
33207;DHT22;19565;46.602;11.534;2024-02-26T15:29:13;9.10;99.90
33207;DHT22;19565;46.602;11.534;2024-02-26T15:31:41;9.10;99.90
33207;DHT22;19565;46.602;11.534;2024-02-26T15:34:10;9.10;99.90
33207;DHT22;19565;46.602;11.534;2024-02-26T15:36:40;9.00;99.90
33207;DHT22;19565;46.602;11.534;2024-02-26T15:39:09;9.00;99.90
33207;DHT22;19565;46.602;11.534;2024-02-26T15:41:38;9.00;99.90
33207;DHT22;19565;46.602;11.534;2024-02-26T15:44:07;9.00;99.90